Time;durP1;ratioP1;P1;durP2;ratioP2;P2;SDS_P1;SDS_P2;PMS_P1;PMS_P2;Temp;Humidity;BMP_temperature;BMP_pressure;BME280_temperature;BME280_humidity;BME280_pressure;Samples;Min_cycle;Max_cycle;Signal;HPM_P1;HPM_P2
2022/04/07 00:01:26;;;;;;;9.35;2.25;;;;;;;;;;5048750;28;20427;-14
2022/04/07 00:03:53;;;;;;;7.20;2.15;;;;;;;;;;5050333;28;20245;-14
2022/04/07 00:06:21;;;;;;;6.15;1.80;;;;;;;;;;5053730;28;20897;-14
2022/04/07 00:08:49;;;;;;;8.63;2.13;;;;;;;;;;5053961;28;20234;-14
2022/04/07 00:11:18;;;;;;;3.78;1.90;;;;;;;;;;5054016;28;20613;-14
2022/04/07 00:13:45;;;;;;;7.68;1.90;;;;;;;;;;5054158;28;20229;-14
2022/04/07 00:16:12;;;;;;;6.82;1.65;;;;;;;;;;5050411;28;20226;-14
2022/04/07 00:18:40;;;;;;;6.28;2.45;;;;;;;;;;5053725;28;20222;-14
2022/04/07 00:21:11;;;;;;;5.32;1.67;;;;;;;;;;5052606;28;20705;-14
2022/04/07 00:23:40;;;;;;;4.03;1.90;;;;;;;;;;5052826;28;20257;-14
2022/04/07 00:26:07;;;;;;;2.80;1.83;;;;;;;;;;5052631;28;20621;-14
2022/04/07 00:28:36;;;;;;;3.90;2.10;;;;;;;;;;5053686;28;20222;-14
2022/04/07 00:31:03;;;;;;;3.20;2.13;;;;;;;;;;5049348;28;20215;-14
2022/04/07 00:33:31;;;;;;;3.67;2.15;;;;;;;;;;5053479;28;20292;-14
2022/04/07 00:35:58;;;;;;;5.43;1.92;;;;;;;;;;5053710;28;20245;-14
2022/04/07 00:38:25;;;;;;;4.47;1.88;;;;;;;;;;5052907;28;20233;-14
2022/04/07 00:40:52;;;;;;;3.80;2.05;;;;;;;;;;5053871;28;20226;-14
2022/04/07 00:43:29;;;;;;;4.07;1.83;;;;;;;;;;5049324;28;20234;-14
2022/04/07 00:45:58;;;;;;;2.60;1.77;;;;;;;;;;5045946;28;20240;-14
2022/04/07 00:48:26;;;;;;;4.38;2.05;;;;;;;;;;5052816;28;20234;-14
2022/04/07 00:50:53;;;;;;;2.65;1.70;;;;;;;;;;5053401;28;20239;-14
2022/04/07 00:53:21;;;;;;;3.10;1.80;;;;;;;;;;5049172;28;20238;-14
2022/04/07 00:55:49;;;;;;;2.55;1.65;;;;;;;;;;5053265;28;20232;-14
2022/04/07 00:58:16;;;;;;;2.85;1.90;;;;;;;;;;5052614;28;20701;-14
2022/04/07 01:00:43;;;;;;;3.17;1.67;;;;;;;;;;5050486;28;20239;-14
2022/04/07 01:03:12;;;;;;;5.63;1.80;;;;;;;;;;5052908;28;20681;-14
2022/04/07 01:05:39;;;;;;;4.30;1.85;;;;;;;;;;5049817;28;20234;-14
2022/04/07 01:08:07;;;;;;;2.78;1.50;;;;;;;;;;5051601;28;20233;-14
2022/04/07 01:10:34;;;;;;;3.10;1.77;;;;;;;;;;5051222;28;20253;-14
2022/04/07 01:13:01;;;;;;;2.42;1.60;;;;;;;;;;5051063;28;20238;-14
2022/04/07 01:15:29;;;;;;;3.50;1.70;;;;;;;;;;5050571;28;20230;-14
2022/04/07 01:17:58;;;;;;;4.45;1.77;;;;;;;;;;5052702;28;20774;-14
2022/04/07 01:20:26;;;;;;;2.00;1.30;;;;;;;;;;5052556;28;20234;-14
2022/04/07 01:22:54;;;;;;;4.32;1.50;;;;;;;;;;5052255;28;20277;-14
2022/04/07 01:25:23;;;;;;;2.67;1.50;;;;;;;;;;5052674;28;21085;-14
2022/04/07 01:27:50;;;;;;;3.15;1.70;;;;;;;;;;5047831;28;20234;-14
2022/04/07 01:30:17;;;;;;;2.92;1.52;;;;;;;;;;5047744;28;20226;-14
2022/04/07 01:32:46;;;;;;;3.10;1.55;;;;;;;;;;5051897;28;20689;-14
2022/04/07 01:35:13;;;;;;;2.00;1.13;;;;;;;;;;5052347;28;20233;-14
2022/04/07 01:37:41;;;;;;;3.03;1.15;;;;;;;;;;5051334;28;20260;-14
2022/04/07 01:40:09;;;;;;;4.20;1.30;;;;;;;;;;5052638;28;20234;-14
2022/04/07 01:42:38;;;;;;;3.50;1.45;;;;;;;;;;5052086;28;20717;-14
2022/04/07 01:45:05;;;;;;;3.50;1.40;;;;;;;;;;5052259;28;20234;-14
2022/04/07 01:47:34;;;;;;;3.42;1.40;;;;;;;;;;5050014;28;20720;-14
2022/04/07 01:50:01;;;;;;;5.10;1.65;;;;;;;;;;5051399;28;20222;-14
2022/04/07 01:52:29;;;;;;;3.33;1.27;;;;;;;;;;5052165;28;20769;-14
2022/04/07 01:54:56;;;;;;;4.53;1.40;;;;;;;;;;5052193;28;20230;-14
2022/04/07 01:57:24;;;;;;;4.05;1.50;;;;;;;;;;5052208;28;20227;-14
2022/04/07 01:59:52;;;;;;;8.35;1.35;;;;;;;;;;5047721;28;20242;-14
2022/04/07 02:02:21;;;;;;;3.80;1.30;;;;;;;;;;5048051;28;20260;-14
2022/04/07 02:04:53;;;;;;;3.85;1.20;;;;;;;;;;5051861;28;20250;-14
2022/04/07 02:07:20;;;;;;;4.00;1.17;;;;;;;;;;5047979;28;20237;-14
2022/04/07 02:09:47;;;;;;;5.03;1.25;;;;;;;;;;5051872;28;20245;-14
2022/04/07 02:12:15;;;;;;;4.05;1.58;;;;;;;;;;5050973;28;20244;-14
2022/04/07 02:14:43;;;;;;;3.83;1.48;;;;;;;;;;5051632;28;20237;-14
2022/04/07 02:17:12;;;;;;;4.05;1.40;;;;;;;;;;5048914;28;20690;-14
2022/04/07 02:19:39;;;;;;;4.43;1.20;;;;;;;;;;5051669;28;21036;-14
2022/04/07 02:22:07;;;;;;;4.70;1.10;;;;;;;;;;5080681;22;20237;-19
2022/04/07 02:24:37;;;;;;;2.92;1.05;;;;;;;;;;5071802;28;21045;-19
2022/04/07 02:27:05;;;;;;;4.18;1.02;;;;;;;;;;5071875;28;20818;-19
2022/04/07 02:29:32;;;;;;;4.25;1.30;;;;;;;;;;5071543;28;20225;-19
2022/04/07 02:31:59;;;;;;;5.53;1.30;;;;;;;;;;5071784;28;20236;-19
2022/04/07 02:34:28;;;;;;;4.07;1.35;;;;;;;;;;5071552;28;20230;-19
2022/04/07 02:36:55;;;;;;;2.40;1.10;;;;;;;;;;5072009;28;20229;-19
2022/04/07 02:39:23;;;;;;;3.72;1.25;;;;;;;;;;5072315;28;20230;-18
2022/04/07 02:41:50;;;;;;;7.63;2.03;;;;;;;;;;5072108;28;20232;-20
2022/04/07 02:44:18;;;;;;;4.45;1.60;;;;;;;;;;5070681;28;20240;-20
2022/04/07 02:46:45;;;;;;;3.20;1.20;;;;;;;;;;5068997;28;20236;-19
2022/04/07 02:49:13;;;;;;;3.88;1.23;;;;;;;;;;5071862;28;20221;-19
2022/04/07 02:51:41;;;;;;;4.25;1.20;;;;;;;;;;5071842;28;20237;-20
2022/04/07 02:54:09;;;;;;;3.60;1.30;;;;;;;;;;5072643;28;20238;-19
2022/04/07 02:56:36;;;;;;;3.97;1.38;;;;;;;;;;5071448;28;20300;-19
2022/04/07 02:59:04;;;;;;;3.30;1.60;;;;;;;;;;5071245;28;20233;-20
2022/04/07 03:01:31;;;;;;;4.15;1.80;;;;;;;;;;5064613;28;20727;-19
2022/04/07 03:03:59;;;;;;;3.65;1.15;;;;;;;;;;5071088;28;20225;-19
2022/04/07 03:06:26;;;;;;;5.72;1.50;;;;;;;;;;5070655;28;20323;-19
2022/04/07 03:08:55;;;;;;;3.97;1.33;;;;;;;;;;5071794;28;20980;-19
2022/04/07 03:11:22;;;;;;;7.25;1.50;;;;;;;;;;5070910;28;20242;-20
2022/04/07 03:13:49;;;;;;;5.53;1.40;;;;;;;;;;5066962;28;20712;-20
2022/04/07 03:16:16;;;;;;;4.88;1.38;;;;;;;;;;5068416;28;20221;-19
2022/04/07 03:18:44;;;;;;;7.03;1.60;;;;;;;;;;5071058;28;20319;-20
2022/04/07 03:21:11;;;;;;;5.68;1.52;;;;;;;;;;5061669;28;20244;-18
2022/04/07 03:23:38;;;;;;;5.55;1.42;;;;;;;;;;5050930;28;20226;-19
2022/04/07 03:26:07;;;;;;;3.95;1.60;;;;;;;;;;5050841;28;20349;-19
2022/04/07 03:28:34;;;;;;;4.28;1.38;;;;;;;;;;5051115;28;20229;-20
2022/04/07 03:31:02;;;;;;;3.83;1.38;;;;;;;;;;5048078;28;20229;-19
2022/04/07 03:33:29;;;;;;;4.78;1.55;;;;;;;;;;5050859;28;20767;-19
2022/04/07 03:35:58;;;;;;;6.50;1.60;;;;;;;;;;5051468;28;20218;-19
2022/04/07 03:38:25;;;;;;;5.45;1.92;;;;;;;;;;5053875;28;20325;-19
2022/04/07 03:40:53;;;;;;;4.55;1.65;;;;;;;;;;5054537;28;20233;-19
2022/04/07 03:43:21;;;;;;;6.15;1.42;;;;;;;;;;5046048;28;20241;-19
2022/04/07 03:45:49;;;;;;;7.85;1.95;;;;;;;;;;5054204;28;20253;-20
2022/04/07 03:48:16;;;;;;;7.22;2.40;;;;;;;;;;5053501;28;20230;-19
2022/04/07 03:50:43;;;;;;;5.03;2.00;;;;;;;;;;5054563;28;20227;-19
2022/04/07 03:53:10;;;;;;;6.60;2.08;;;;;;;;;;5054077;28;20230;-19
2022/04/07 03:55:38;;;;;;;9.60;1.90;;;;;;;;;;5053997;28;20233;-20
2022/04/07 03:58:05;;;;;;;5.65;2.03;;;;;;;;;;5054013;28;20240;-19
2022/04/07 04:00:34;;;;;;;5.80;1.90;;;;;;;;;;5053222;28;20229;-20
2022/04/07 04:03:01;;;;;;;8.98;2.28;;;;;;;;;;5053860;28;20233;-20
2022/04/07 04:05:29;;;;;;;9.80;2.25;;;;;;;;;;5053859;28;20252;-19
2022/04/07 04:07:56;;;;;;;8.02;1.75;;;;;;;;;;5054070;28;20697;-19
2022/04/07 04:10:24;;;;;;;10.65;2.03;;;;;;;;;;5053096;28;20226;-20
2022/04/07 04:12:51;;;;;;;7.78;1.83;;;;;;;;;;5050464;28;20712;-20
2022/04/07 04:15:19;;;;;;;8.65;3.03;;;;;;;;;;5051697;28;20257;-20
2022/04/07 04:17:48;;;;;;;6.72;1.98;;;;;;;;;;5053457;28;20241;-20
2022/04/07 04:20:15;;;;;;;7.13;1.67;;;;;;;;;;5053236;28;20234;-20
2022/04/07 04:22:42;;;;;;;7.35;1.92;;;;;;;;;;5053198;28;20222;-20
2022/04/07 04:25:09;;;;;;;10.43;2.15;;;;;;;;;;5053622;28;20253;-20
2022/04/07 04:27:37;;;;;;;7.47;2.00;;;;;;;;;;5053523;28;20234;-20
2022/04/07 04:30:05;;;;;;;6.18;1.80;;;;;;;;;;5052667;28;20625;-19
2022/04/07 04:32:33;;;;;;;7.45;1.80;;;;;;;;;;5052789;28;20716;-20
2022/04/07 04:35:01;;;;;;;6.45;2.25;;;;;;;;;;5053616;28;20702;-20
2022/04/07 04:37:29;;;;;;;8.88;2.58;;;;;;;;;;5053289;28;20233;-20
2022/04/07 04:39:56;;;;;;;4.53;1.80;;;;;;;;;;5053229;28;20725;-20
2022/04/07 04:42:23;;;;;;;5.72;1.50;;;;;;;;;;5053805;28;20233;-20
2022/04/07 04:44:51;;;;;;;8.23;1.88;;;;;;;;;;5048846;28;20253;-20
2022/04/07 04:47:18;;;;;;;4.90;1.55;;;;;;;;;;5052468;28;20226;-20
2022/04/07 04:49:46;;;;;;;5.72;1.90;;;;;;;;;;5053209;28;20215;-20
2022/04/07 04:52:14;;;;;;;5.30;1.70;;;;;;;;;;5053139;28;20230;-20
2022/04/07 04:54:42;;;;;;;5.05;1.88;;;;;;;;;;5051877;28;20233;-20
2022/04/07 04:57:09;;;;;;;4.97;1.42;;;;;;;;;;5053148;28;20230;-20
2022/04/07 04:59:36;;;;;;;4.95;1.50;;;;;;;;;;5052348;28;21039;-20
2022/04/07 05:02:05;;;;;;;7.22;1.60;;;;;;;;;;5049942;28;20222;-20
2022/04/07 05:04:32;;;;;;;4.50;1.30;;;;;;;;;;5052718;28;20242;-19
2022/04/07 05:07:00;;;;;;;6.75;1.60;;;;;;;;;;5054496;28;20237;-20
2022/04/07 05:09:28;;;;;;;7.25;1.30;;;;;;;;;;5052746;28;20230;-20
2022/04/07 05:11:56;;;;;;;5.78;1.88;;;;;;;;;;5052796;28;20265;-20
2022/04/07 05:14:23;;;;;;;5.50;1.38;;;;;;;;;;5052523;28;20218;-19
2022/04/07 05:16:53;;;;;;;7.28;1.98;;;;;;;;;;5047622;28;20230;-20
2022/04/07 05:19:20;;;;;;;5.55;1.92;;;;;;;;;;5048425;28;20256;-20
2022/04/07 05:21:50;;;;;;;4.40;1.30;;;;;;;;;;5051892;28;20253;-20
2022/04/07 05:24:18;;;;;;;4.75;1.35;;;;;;;;;;5052504;28;20241;-20
2022/04/07 05:26:46;;;;;;;4.47;1.60;;;;;;;;;;5052370;28;20731;-20
2022/04/07 05:29:14;;;;;;;6.25;1.48;;;;;;;;;;5051817;28;20223;-20
2022/04/07 05:31:41;;;;;;;5.97;1.27;;;;;;;;;;5052316;28;20632;-19
2022/04/07 05:34:09;;;;;;;7.13;1.65;;;;;;;;;;5052721;28;20237;-20
2022/04/07 05:36:36;;;;;;;4.25;1.20;;;;;;;;;;5052298;28;20768;-19
2022/04/07 05:39:03;;;;;;;3.92;1.15;;;;;;;;;;5051881;28;20234;-19
2022/04/07 05:41:30;;;;;;;4.95;1.15;;;;;;;;;;5052472;28;21201;-20
2022/04/07 05:43:59;;;;;;;4.05;1.02;;;;;;;;;;5051721;28;20268;-20
2022/04/07 05:46:26;;;;;;;2.95;1.27;;;;;;;;;;5052010;28;20241;-20
2022/04/07 05:48:54;;;;;;;6.28;1.30;;;;;;;;;;5052482;28;20695;-20
2022/04/07 05:51:21;;;;;;;3.00;1.17;;;;;;;;;;5050063;28;20241;-19
2022/04/07 05:53:48;;;;;;;2.22;0.80;;;;;;;;;;5052279;28;20225;-19
2022/04/07 05:56:16;;;;;;;2.63;0.90;;;;;;;;;;5051898;28;20211;-20
2022/04/07 05:58:43;;;;;;;3.72;0.90;;;;;;;;;;5052506;28;20239;-20
2022/04/07 06:01:12;;;;;;;5.10;1.00;;;;;;;;;;5053400;28;20238;-19
2022/04/07 06:03:40;;;;;;;3.50;1.23;;;;;;;;;;5052132;28;20393;-19
2022/04/07 06:06:08;;;;;;;4.78;1.02;;;;;;;;;;5051713;28;20309;-19
2022/04/07 06:08:35;;;;;;;4.97;1.50;;;;;;;;;;5051151;28;20236;-19
2022/04/07 06:11:02;;;;;;;3.60;1.25;;;;;;;;;;5052015;28;20226;-19
2022/04/07 06:13:30;;;;;;;5.55;1.30;;;;;;;;;;5051212;28;20716;-20
2022/04/07 06:15:57;;;;;;;3.55;1.05;;;;;;;;;;5048461;28;20366;-19
2022/04/07 06:18:27;;;;;;;3.45;0.93;;;;;;;;;;5051989;28;20237;-19
2022/04/07 06:20:55;;;;;;;2.45;0.88;;;;;;;;;;5051410;28;20246;-20
2022/04/07 06:23:22;;;;;;;1.90;0.95;;;;;;;;;;5051433;28;20223;-19
2022/04/07 06:25:49;;;;;;;2.42;1.05;;;;;;;;;;5051485;28;21037;-19
2022/04/07 06:28:16;;;;;;;2.22;1.08;;;;;;;;;;5051748;28;20233;-19
2022/04/07 06:30:44;;;;;;;4.18;1.02;;;;;;;;;;5048557;28;21550;-19
2022/04/07 06:33:11;;;;;;;3.65;0.73;;;;;;;;;;5049871;28;20259;-19
2022/04/07 06:35:40;;;;;;;1.92;0.90;;;;;;;;;;5050625;28;20233;-19
2022/04/07 06:38:07;;;;;;;1.73;0.80;;;;;;;;;;5049209;28;20238;-19
2022/04/07 06:40:34;;;;;;;2.38;0.80;;;;;;;;;;5048846;28;20233;-19
2022/04/07 06:43:02;;;;;;;3.00;1.25;;;;;;;;;;5050060;28;20226;-19
2022/04/07 06:45:29;;;;;;;1.50;0.75;;;;;;;;;;5046248;28;20235;-19
2022/04/07 06:47:57;;;;;;;1.55;0.90;;;;;;;;;;5049103;28;20226;-19
2022/04/07 06:50:25;;;;;;;2.75;1.13;;;;;;;;;;5051177;28;20238;-20
2022/04/07 06:52:54;;;;;;;2.92;1.80;;;;;;;;;;5048932;28;20234;-20
2022/04/07 06:55:21;;;;;;;2.90;1.48;;;;;;;;;;5049447;28;20233;-20
2022/04/07 06:57:51;;;;;;;3.10;1.50;;;;;;;;;;5050052;28;20245;-19
2022/04/07 07:00:19;;;;;;;5.47;1.30;;;;;;;;;;5050613;28;20225;-18
2022/04/07 07:02:47;;;;;;;8.68;1.50;;;;;;;;;;5050592;28;20234;-19
2022/04/07 07:05:15;;;;;;;10.45;1.30;;;;;;;;;;5050936;28;20333;-19
2022/04/07 07:07:42;;;;;;;4.70;1.30;;;;;;;;;;5049870;28;20246;-19
2022/04/07 07:10:11;;;;;;;1.98;1.15;;;;;;;;;;5049437;28;20797;-20
2022/04/07 07:12:38;;;;;;;3.13;1.05;;;;;;;;;;5050406;28;21074;-20
2022/04/07 07:15:06;;;;;;;4.75;0.93;;;;;;;;;;5046144;28;20222;-20
2022/04/07 07:17:38;;;;;;;2.63;0.90;;;;;;;;;;5049903;28;20238;-20
2022/04/07 07:20:05;;;;;;;1.08;0.73;;;;;;;;;;5049655;28;20226;-19
2022/04/07 07:22:33;;;;;;;2.38;0.70;;;;;;;;;;5048279;28;20743;-19
2022/04/07 07:25:00;;;;;;;4.22;0.77;;;;;;;;;;5048868;28;20234;-19
2022/04/07 07:27:29;;;;;;;14.98;1.45;;;;;;;;;;5049741;28;20249;-20
2022/04/07 07:29:56;;;;;;;12.23;1.00;;;;;;;;;;5050706;28;20242;-19
2022/04/07 07:32:23;;;;;;;4.25;0.65;;;;;;;;;;5045447;28;20236;-19
2022/04/07 07:34:50;;;;;;;2.58;0.65;;;;;;;;;;5047928;28;20257;-19
2022/04/07 07:37:18;;;;;;;4.53;0.80;;;;;;;;;;5050103;28;20230;-19
2022/04/07 07:39:46;;;;;;;5.80;0.95;;;;;;;;;;5050315;28;20240;-19
2022/04/07 07:42:13;;;;;;;5.88;0.80;;;;;;;;;;5049101;28;20422;-19
2022/04/07 07:44:45;;;;;;;4.38;0.90;;;;;;;;;;5048352;28;20260;-19
2022/04/07 07:47:12;;;;;;;7.47;1.27;;;;;;;;;;5047961;28;20234;-19
2022/04/07 07:49:40;;;;;;;7.20;0.80;;;;;;;;;;5045473;28;20234;-19
2022/04/07 07:52:07;;;;;;;4.00;0.80;;;;;;;;;;5046257;28;20428;-19
2022/04/07 07:54:34;;;;;;;6.13;0.95;;;;;;;;;;5050443;28;20236;-20
2022/04/07 07:57:02;;;;;;;2.20;0.60;;;;;;;;;;5050714;28;20238;-19
2022/04/07 07:59:29;;;;;;;3.55;0.60;;;;;;;;;;5051341;28;20214;-20
2022/04/07 08:01:58;;;;;;;3.25;0.70;;;;;;;;;;5050046;28;20237;-20
2022/04/07 08:04:25;;;;;;;2.70;0.85;;;;;;;;;;5051138;28;20240;-20
2022/04/07 08:06:52;;;;;;;1.95;0.50;;;;;;;;;;5050563;28;20230;-19
2022/04/07 08:09:20;;;;;;;5.05;0.75;;;;;;;;;;5050001;28;20701;-20
2022/04/07 08:11:47;;;;;;;9.32;1.13;;;;;;;;;;5050087;28;20230;-20
2022/04/07 08:14:15;;;;;;;17.20;1.83;;;;;;;;;;5049936;28;20265;-20
2022/04/07 08:16:42;;;;;;;18.38;1.83;;;;;;;;;;5050405;28;20280;-20
2022/04/07 08:19:11;;;;;;;11.52;1.60;;;;;;;;;;5050347;28;20234;-20
2022/04/07 08:21:38;;;;;;;10.25;1.02;;;;;;;;;;5049697;28;20632;-20
2022/04/07 08:24:06;;;;;;;15.48;1.55;;;;;;;;;;5051678;28;20234;-20
2022/04/07 08:26:34;;;;;;;8.55;0.90;;;;;;;;;;5053726;28;20245;-20
2022/04/07 08:29:01;;;;;;;10.18;1.42;;;;;;;;;;5053501;28;20230;-20
2022/04/07 08:31:28;;;;;;;7.43;0.90;;;;;;;;;;5053742;28;20280;-20
2022/04/07 08:33:56;;;;;;;6.32;0.82;;;;;;;;;;5054722;28;20222;-20
2022/04/07 08:36:24;;;;;;;6.82;1.08;;;;;;;;;;5053197;28;20241;-20
2022/04/07 08:38:52;;;;;;;10.73;1.20;;;;;;;;;;5053918;28;20234;-19
2022/04/07 08:41:19;;;;;;;10.30;1.17;;;;;;;;;;5052860;28;20422;-20
2022/04/07 08:43:46;;;;;;;13.82;1.05;;;;;;;;;;5052493;28;20238;-20
2022/04/07 08:46:14;;;;;;;10.35;0.80;;;;;;;;;;5052477;28;20969;-19
2022/04/07 08:48:42;;;;;;;9.88;1.15;;;;;;;;;;5052501;28;20241;-20
2022/04/07 08:51:10;;;;;;;14.75;1.20;;;;;;;;;;5051944;28;20426;-19
2022/04/07 08:53:39;;;;;;;14.25;0.98;;;;;;;;;;5053736;28;20992;-20
2022/04/07 08:56:07;;;;;;;3.97;0.90;;;;;;;;;;5053969;28;20709;-19
2022/04/07 08:58:34;;;;;;;13.75;0.85;;;;;;;;;;5053555;28;20230;-19
2022/04/07 09:01:02;;;;;;;8.93;0.93;;;;;;;;;;5053054;28;21547;-20
2022/04/07 09:03:29;;;;;;;6.05;0.77;;;;;;;;;;5053506;28;20230;-19
2022/04/07 09:05:57;;;;;;;4.78;0.40;;;;;;;;;;5052944;28;20716;-19
2022/04/07 09:08:31;;;;;;;6.10;0.88;;;;;;;;;;5052199;28;20240;-20
2022/04/07 09:11:00;;;;;;;4.35;0.65;;;;;;;;;;5053241;28;20613;-20
2022/04/07 09:13:31;;;;;;;7.28;0.85;;;;;;;;;;5052245;28;20521;-20
2022/04/07 09:15:59;;;;;;;6.88;0.75;;;;;;;;;;5051947;28;20348;-20
2022/04/07 09:18:26;;;;;;;3.42;0.50;;;;;;;;;;5054277;28;20240;-20
2022/04/07 09:20:54;;;;;;;2.92;0.85;;;;;;;;;;5053619;28;20253;-20
2022/04/07 09:23:21;;;;;;;6.22;1.17;;;;;;;;;;5047980;28;21240;-19
2022/04/07 09:25:49;;;;;;;7.15;0.50;;;;;;;;;;5053246;28;20241;-20
2022/04/07 09:28:29;;;;;;;9.70;0.93;;;;;;;;;;5044599;28;20240;-19
2022/04/07 09:30:57;;;;;;;4.47;0.50;;;;;;;;;;5046430;28;20280;-19
2022/04/07 09:33:25;;;;;;;7.65;1.90;;;;;;;;;;5051963;28;20230;-19
2022/04/07 09:35:58;;;;;;;3.03;0.60;;;;;;;;;;5052674;28;20237;-20
2022/04/07 09:38:26;;;;;;;3.80;0.50;;;;;;;;;;5041511;28;20233;-20
2022/04/07 09:40:54;;;;;;;4.18;0.60;;;;;;;;;;5052322;28;20261;-20
2022/04/07 09:43:21;;;;;;;3.58;0.60;;;;;;;;;;5048363;28;20709;-20
2022/04/07 09:45:50;;;;;;;2.47;0.60;;;;;;;;;;5049388;28;20852;-19
2022/04/07 09:48:34;;;;;;;5.63;0.60;;;;;;;;;;5045976;28;20775;-19
2022/04/07 09:51:02;;;;;;;2.92;0.80;;;;;;;;;;5051828;28;20234;-19
2022/04/07 09:53:30;;;;;;;2.75;0.70;;;;;;;;;;5051433;28;20234;-20
2022/04/07 09:55:58;;;;;;;4.32;0.82;;;;;;;;;;5051284;28;20417;-19
2022/04/07 09:58:25;;;;;;;6.95;1.02;;;;;;;;;;5052187;28;20307;-20
2022/04/07 10:00:56;;;;;;;4.07;0.80;;;;;;;;;;5049367;28;20697;-19
2022/04/07 10:03:23;;;;;;;2.40;0.73;;;;;;;;;;5047063;28;20431;-19
2022/04/07 10:05:51;;;;;;;4.30;0.68;;;;;;;;;;5048123;28;20662;-20
2022/04/07 10:08:18;;;;;;;5.68;0.60;;;;;;;;;;5054217;28;20241;-19
2022/04/07 10:10:46;;;;;;;2.88;0.52;;;;;;;;;;5051933;28;20238;-20
2022/04/07 10:13:13;;;;;;;2.53;0.57;;;;;;;;;;5050547;28;20234;-19
2022/04/07 10:15:40;;;;;;;3.42;0.77;;;;;;;;;;5047958;28;20497;-20
2022/04/07 10:18:10;;;;;;;2.00;0.52;;;;;;;;;;5051100;28;20238;-20
2022/04/07 10:20:38;;;;;;;5.68;0.65;;;;;;;;;;5050642;28;21125;-20
2022/04/07 10:23:08;;;;;;;3.33;0.70;;;;;;;;;;5051890;28;20233;-19
2022/04/07 10:25:43;;;;;;;6.93;1.15;;;;;;;;;;5053351;28;20241;-19
2022/04/07 10:28:10;;;;;;;3.28;0.80;;;;;;;;;;5051630;28;20222;-20
2022/04/07 10:30:46;;;;;;;4.78;0.75;;;;;;;;;;5048917;28;21660;-20
2022/04/07 10:33:28;;;;;;;4.22;0.95;;;;;;;;;;5051164;28;20240;-19
2022/04/07 10:35:57;;;;;;;6.57;1.08;;;;;;;;;;5047893;28;20720;-19
2022/04/07 10:38:35;;;;;;;3.63;0.90;;;;;;;;;;5051355;28;20246;-19
2022/04/07 10:41:03;;;;;;;4.78;1.08;;;;;;;;;;5050520;28;20230;-19
2022/04/07 10:43:30;;;;;;;6.43;1.45;;;;;;;;;;5051352;28;20226;-20
2022/04/07 10:46:18;;;;;;;4.60;0.82;;;;;;;;;;5051082;28;20229;-19
2022/04/07 10:48:46;;;;;;;8.23;1.30;;;;;;;;;;5051464;28;20225;-18
2022/04/07 10:51:15;;;;;;;7.63;1.38;;;;;;;;;;5051102;28;20419;-18
2022/04/07 10:54:01;;;;;;;7.53;1.52;;;;;;;;;;5051425;28;20260;-20
2022/04/07 10:56:32;;;;;;;10.20;1.25;;;;;;;;;;5048371;28;20958;-20
2022/04/07 10:59:11;;;;;;;10.07;0.88;;;;;;;;;;5052831;28;20240;-20
2022/04/07 11:01:56;;;;;;;3.22;1.10;;;;;;;;;;5051346;28;20222;-19
2022/04/07 11:04:27;;;;;;;4.38;0.95;;;;;;;;;;5047614;28;20309;-20
2022/04/07 11:07:19;;;;;;;8.05;1.17;;;;;;;;;;5046219;28;20415;-20
2022/04/07 11:09:47;;;;;;;6.63;1.23;;;;;;;;;;5052733;28;20238;-19
2022/04/07 11:12:18;;;;;;;3.33;0.80;;;;;;;;;;5051195;28;20317;-20
2022/04/07 11:14:46;;;;;;;4.53;1.00;;;;;;;;;;5050879;28;20225;-19
2022/04/07 11:17:15;;;;;;;4.35;0.90;;;;;;;;;;5048221;28;20215;-19
2022/04/07 11:19:45;;;;;;;7.25;1.00;;;;;;;;;;5050484;28;20268;-20
2022/04/07 11:22:13;;;;;;;8.40;1.55;;;;;;;;;;5050429;28;20248;-19
2022/04/07 11:24:47;;;;;;;4.82;1.08;;;;;;;;;;5050786;28;20230;-19
2022/04/07 11:27:33;;;;;;;6.22;1.40;;;;;;;;;;5050892;28;20229;-20
2022/04/07 11:30:04;;;;;;;7.72;1.30;;;;;;;;;;5048182;28;20233;-19
2022/04/07 11:32:32;;;;;;;5.28;1.17;;;;;;;;;;5049916;28;20930;-19
2022/04/07 11:35:11;;;;;;;5.13;1.20;;;;;;;;;;5050946;28;20225;-19
2022/04/07 11:37:41;;;;;;;8.90;1.65;;;;;;;;;;5049430;28;20419;-19
2022/04/07 11:40:10;;;;;;;7.65;2.03;;;;;;;;;;5050647;28;20691;-19
2022/04/07 11:42:38;;;;;;;11.40;1.65;;;;;;;;;;5049824;28;20234;-19
2022/04/07 11:45:07;;;;;;;8.15;1.85;;;;;;;;;;5049634;28;20419;-19
2022/04/07 11:47:36;;;;;;;6.88;1.38;;;;;;;;;;5050846;28;20222;-19
2022/04/07 11:50:04;;;;;;;9.60;1.73;;;;;;;;;;5049139;28;20510;-19
2022/04/07 11:52:32;;;;;;;8.60;1.90;;;;;;;;;;5050276;28;20230;-19
2022/04/07 11:55:00;;;;;;;11.52;1.60;;;;;;;;;;5050633;28;21095;-19
2022/04/07 11:57:29;;;;;;;6.55;1.85;;;;;;;;;;5051087;28;20437;-19
2022/04/07 11:59:57;;;;;;;7.93;2.25;;;;;;;;;;5053041;28;20460;-19
2022/04/07 12:02:24;;;;;;;11.80;2.35;;;;;;;;;;5052574;28;20426;-19
2022/04/07 12:04:58;;;;;;;11.38;1.85;;;;;;;;;;5053516;28;20352;-20
2022/04/07 12:07:26;;;;;;;13.15;2.38;;;;;;;;;;5050452;28;20236;-19
2022/04/07 12:09:56;;;;;;;12.70;1.75;;;;;;;;;;5054039;28;20233;-20
2022/04/07 12:12:24;;;;;;;12.88;1.95;;;;;;;;;;5051011;28;20317;-19
2022/04/07 12:14:52;;;;;;;10.77;1.58;;;;;;;;;;5050061;28;20238;-19
2022/04/07 12:17:22;;;;;;;5.90;1.73;;;;;;;;;;5049494;28;20214;-20
2022/04/07 12:19:49;;;;;;;8.13;1.67;;;;;;;;;;5053793;28;20732;-20
2022/04/07 12:22:17;;;;;;;7.90;1.90;;;;;;;;;;5052422;28;20280;-20
2022/04/07 12:25:01;;;;;;;9.70;1.77;;;;;;;;;;5053657;28;20713;-20
2022/04/07 12:27:28;;;;;;;9.95;2.28;;;;;;;;;;5052937;28;20234;-20
2022/04/07 12:29:57;;;;;;;8.20;1.98;;;;;;;;;;5053331;28;20249;-20
2022/04/07 12:32:24;;;;;;;6.93;1.80;;;;;;;;;;5053331;28;20278;-19
2022/04/07 12:34:55;;;;;;;5.65;1.67;;;;;;;;;;5053871;28;20242;-20
2022/04/07 12:37:29;;;;;;;6.68;1.92;;;;;;;;;;5051693;28;20296;-20
2022/04/07 12:39:56;;;;;;;5.43;1.63;;;;;;;;;;5050128;28;20241;-20
2022/04/07 12:42:24;;;;;;;7.45;1.80;;;;;;;;;;5053141;28;20230;-20
2022/04/07 12:44:51;;;;;;;7.38;1.65;;;;;;;;;;5049846;28;20936;-19
2022/04/07 12:47:25;;;;;;;5.90;1.73;;;;;;;;;;5043354;28;20237;-20
2022/04/07 12:49:53;;;;;;;9.25;1.88;;;;;;;;;;5049550;28;20244;-20
2022/04/07 12:52:21;;;;;;;8.35;2.03;;;;;;;;;;5049503;28;20958;-20
2022/04/07 12:54:55;;;;;;;6.65;2.10;;;;;;;;;;5053317;28;21079;-20
2022/04/07 12:57:23;;;;;;;5.93;1.65;;;;;;;;;;5049211;28;20234;-19
2022/04/07 12:59:53;;;;;;;5.90;1.80;;;;;;;;;;5048827;28;20231;-19
2022/04/07 13:02:22;;;;;;;6.25;1.95;;;;;;;;;;5049031;28;20714;-20
2022/04/07 13:04:50;;;;;;;6.53;1.95;;;;;;;;;;5053290;28;20795;-20
2022/04/07 13:07:17;;;;;;;6.00;1.77;;;;;;;;;;5052860;28;20666;-20
2022/04/07 13:09:45;;;;;;;6.20;1.90;;;;;;;;;;5051903;28;20241;-20
2022/04/07 13:12:13;;;;;;;6.90;1.77;;;;;;;;;;5052508;28;20210;-20
2022/04/07 13:14:41;;;;;;;6.93;1.70;;;;;;;;;;5052862;28;20242;-20
2022/04/07 13:17:09;;;;;;;6.63;2.03;;;;;;;;;;5045844;28;20230;-20
2022/04/07 13:19:41;;;;;;;5.03;1.80;;;;;;;;;;5052726;28;20778;-20
2022/04/07 13:22:08;;;;;;;7.03;1.92;;;;;;;;;;5054086;28;20850;-20
2022/04/07 13:24:36;;;;;;;7.30;2.00;;;;;;;;;;5052651;28;20230;-20
2022/04/07 13:27:03;;;;;;;5.63;1.67;;;;;;;;;;5052659;28;20693;-19
2022/04/07 13:29:31;;;;;;;6.63;1.80;;;;;;;;;;5052502;28;20238;-20
2022/04/07 13:31:59;;;;;;;5.22;1.80;;;;;;;;;;5044999;28;20228;-20
2022/04/07 13:34:26;;;;;;;9.18;1.90;;;;;;;;;;5052562;28;20230;-19
2022/04/07 13:36:55;;;;;;;5.13;1.52;;;;;;;;;;5052220;28;20689;-19
2022/04/07 13:39:23;;;;;;;6.50;1.92;;;;;;;;;;5048658;28;20226;-20
2022/04/07 13:41:50;;;;;;;5.93;1.60;;;;;;;;;;5044462;28;20330;-20
2022/04/07 13:44:18;;;;;;;8.25;1.70;;;;;;;;;;5054008;28;20230;-20
2022/04/07 13:46:45;;;;;;;6.85;1.77;;;;;;;;;;5045288;28;20249;-20
2022/04/07 13:49:16;;;;;;;4.78;1.50;;;;;;;;;;5052416;28;20222;-20
2022/04/07 13:51:43;;;;;;;7.30;1.73;;;;;;;;;;5052086;28;20222;-20
2022/04/07 13:54:13;;;;;;;5.43;1.40;;;;;;;;;;5053798;28;20230;-20
2022/04/07 13:56:40;;;;;;;8.82;1.40;;;;;;;;;;5052267;28;20238;-20
2022/04/07 13:59:07;;;;;;;10.57;2.50;;;;;;;;;;5052116;28;20233;-20
2022/04/07 14:01:35;;;;;;;6.32;1.60;;;;;;;;;;5051287;28;20240;-19
2022/04/07 14:04:02;;;;;;;5.38;2.03;;;;;;;;;;5052457;28;20280;-20
2022/04/07 14:06:29;;;;;;;6.68;1.23;;;;;;;;;;5051667;28;20234;-20
2022/04/07 14:08:57;;;;;;;6.85;1.73;;;;;;;;;;5051986;28;20987;-20
2022/04/07 14:11:25;;;;;;;6.25;1.60;;;;;;;;;;5051977;28;21079;-20
2022/04/07 14:13:53;;;;;;;5.47;1.52;;;;;;;;;;5051664;28;20230;-20
2022/04/07 14:16:20;;;;;;;5.75;1.38;;;;;;;;;;5047171;28;20230;-20
2022/04/07 14:18:48;;;;;;;5.53;1.45;;;;;;;;;;5051960;28;20226;-19
2022/04/07 14:21:17;;;;;;;4.28;1.50;;;;;;;;;;5050262;28;21092;-20
2022/04/07 14:23:45;;;;;;;7.55;1.70;;;;;;;;;;5051895;28;20250;-20
2022/04/07 14:26:12;;;;;;;5.15;1.30;;;;;;;;;;5051034;28;20218;-20
2022/04/07 14:28:41;;;;;;;4.97;1.42;;;;;;;;;;5051598;28;21020;-20
2022/04/07 14:31:09;;;;;;;7.90;1.90;;;;;;;;;;5048627;28;20245;-20
2022/04/07 14:33:37;;;;;;;6.43;1.45;;;;;;;;;;5051668;28;20240;-20
2022/04/07 14:36:07;;;;;;;6.40;1.50;;;;;;;;;;5051646;28;20226;-20
2022/04/07 14:38:34;;;;;;;5.47;2.05;;;;;;;;;;5051121;28;20222;-20
2022/04/07 14:41:02;;;;;;;6.72;1.88;;;;;;;;;;5051380;28;21039;-20
2022/04/07 14:43:29;;;;;;;5.60;1.42;;;;;;;;;;5052398;28;21008;-20
2022/04/07 14:45:58;;;;;;;5.03;1.48;;;;;;;;;;5052354;28;20226;-20
2022/04/07 14:48:25;;;;;;;6.35;1.95;;;;;;;;;;5051944;28;20234;-20
2022/04/07 14:50:52;;;;;;;6.45;1.70;;;;;;;;;;5051798;28;20677;-20